createdAt,value
2022-12-03T00:01:12.924Z,-0.35
2022-12-03T00:04:00.684Z,-0.41
2022-12-03T00:06:48.506Z,-0.50
2022-12-03T00:09:36.098Z,-0.36
2022-12-03T00:12:23.711Z,-0.55
2022-12-03T00:15:11.311Z,-0.55
2022-12-03T00:17:58.913Z,-0.47
2022-12-03T00:20:46.490Z,-0.53
2022-12-03T00:23:40.182Z,-0.44
2022-12-03T00:26:29.462Z,-0.45
2022-12-03T00:29:17.079Z,-0.36
2022-12-03T00:32:04.657Z,-0.29
2022-12-03T00:34:52.584Z,-0.32
2022-12-03T00:37:40.390Z,-0.32
2022-12-03T00:40:28.067Z,-0.29
2022-12-03T00:43:15.644Z,-0.09
2022-12-03T00:46:03.308Z,-0.31
2022-12-03T00:48:50.929Z,-0.34
2022-12-03T00:51:38.527Z,-0.37
2022-12-03T00:54:31.541Z,-0.43
2022-12-03T00:57:19.571Z,-0.48
2022-12-03T01:00:07.166Z,-0.50
2022-12-03T01:02:54.755Z,-0.37
2022-12-03T01:05:42.345Z,-0.40
2022-12-03T01:08:29.928Z,-0.20
2022-12-03T01:11:17.517Z,-0.09
2022-12-03T01:14:05.117Z,-0.36
2022-12-03T01:16:52.682Z,-0.54
2022-12-03T01:19:43.571Z,-0.36
2022-12-03T01:22:35.524Z,-0.37
2022-12-03T01:25:23.130Z,-0.69
2022-12-03T01:28:10.717Z,-0.67
2022-12-03T01:30:58.398Z,-0.46
2022-12-03T01:33:46.028Z,-0.31
2022-12-03T01:36:33.631Z,-0.11
2022-12-03T01:39:21.206Z,-0.29
2022-12-03T01:42:08.805Z,-0.19
2022-12-03T01:44:56.397Z,-0.33
2022-12-03T01:47:43.962Z,-0.39
2022-12-03T01:50:31.612Z,-0.37
2022-12-03T01:53:19.206Z,-0.50
2022-12-03T01:56:06.758Z,-0.51
2022-12-03T01:58:54.333Z,-0.52
2022-12-03T02:01:41.972Z,-0.63
2022-12-03T02:04:29.736Z,-0.51
2022-12-03T02:07:17.406Z,-0.52
2022-12-03T02:10:04.987Z,-0.62
2022-12-03T02:12:52.647Z,-0.62
2022-12-03T02:15:40.236Z,-0.66
2022-12-03T02:18:27.880Z,-0.65
2022-12-03T02:21:15.494Z,-0.60
2022-12-03T02:24:03.182Z,-0.46
2022-12-03T02:26:50.749Z,-0.70
2022-12-03T02:29:38.358Z,-0.89
2022-12-03T02:32:25.969Z,-0.85
2022-12-03T02:35:13.567Z,-0.88
2022-12-03T02:38:03.152Z,-0.93
2022-12-03T02:40:50.756Z,-0.94
2022-12-03T02:43:38.323Z,-0.87
2022-12-03T02:46:25.970Z,-0.97
2022-12-03T02:49:13.666Z,-1.08
2022-12-03T02:52:01.277Z,-0.90
2022-12-03T02:54:48.857Z,-1.01
2022-12-03T02:57:36.443Z,-1.09
2022-12-03T03:00:24.007Z,-1.03
2022-12-03T03:03:11.627Z,-1.06
2022-12-03T03:05:59.235Z,-1.48
2022-12-03T03:08:46.855Z,-1.06
2022-12-03T03:11:34.424Z,-0.92
2022-12-03T03:14:22.037Z,-0.97
2022-12-03T03:17:09.598Z,-1.05
2022-12-03T03:19:57.201Z,-1.04
2022-12-03T03:22:44.804Z,-1.14
2022-12-03T03:25:32.439Z,-1.09
2022-12-03T03:28:20.029Z,-1.12
2022-12-03T03:31:07.653Z,-1.06
2022-12-03T03:33:55.264Z,-1.13
2022-12-03T03:36:42.862Z,-1.23
2022-12-03T03:39:30.482Z,-1.17
2022-12-03T03:42:18.064Z,-1.02
2022-12-03T03:45:05.631Z,-1.22
2022-12-03T03:47:53.219Z,-1.27
2022-12-03T03:50:40.848Z,-1.37
2022-12-03T03:53:28.467Z,-1.22
2022-12-03T03:56:16.191Z,-1.42
2022-12-03T03:59:03.802Z,-1.13
2022-12-03T04:01:51.395Z,-1.02
2022-12-03T04:04:39.093Z,-1.17
2022-12-03T04:07:26.850Z,-1.37
2022-12-03T04:10:14.493Z,-1.14
2022-12-03T04:13:22.047Z,-1.10
2022-12-03T04:16:29.431Z,-1.10
2022-12-03T04:19:17.034Z,-1.28
2022-12-03T04:22:04.635Z,-1.08
2022-12-03T04:24:52.672Z,-1.03
2022-12-03T04:27:40.571Z,-1.37
2022-12-03T04:30:28.225Z,-1.28
2022-12-03T04:33:15.839Z,-1.29
2022-12-03T04:36:03.449Z,-1.27
2022-12-03T04:38:51.017Z,-1.32
2022-12-03T04:41:38.665Z,-1.29
2022-12-03T04:44:26.325Z,-1.23
2022-12-03T04:47:13.937Z,-1.38
2022-12-03T04:50:01.504Z,-1.47
2022-12-03T04:52:49.104Z,-1.44
2022-12-03T04:55:36.678Z,-1.44
2022-12-03T04:58:24.295Z,-1.49
2022-12-03T05:01:11.960Z,-1.43
2022-12-03T05:03:59.595Z,-1.39
2022-12-03T05:06:47.204Z,-1.52
2022-12-03T05:09:34.806Z,-1.39
2022-12-03T05:12:22.414Z,-1.62
2022-12-03T05:15:09.988Z,-1.69
2022-12-03T05:17:57.568Z,-1.56
2022-12-03T05:20:51.551Z,-1.57
2022-12-03T05:23:41.000Z,-1.56
2022-12-03T05:26:28.601Z,-1.58
2022-12-03T05:29:16.188Z,-1.71
2022-12-03T05:32:03.795Z,-1.79
2022-12-03T05:34:51.625Z,-1.90
2022-12-03T05:37:39.514Z,-1.67
2022-12-03T05:40:27.097Z,-1.69
2022-12-03T05:43:14.705Z,-1.69
2022-12-03T05:46:02.386Z,-1.62
2022-12-03T05:48:50.016Z,-1.68
2022-12-03T05:51:37.774Z,-1.69
2022-12-03T05:54:25.394Z,-1.77
2022-12-03T05:57:12.958Z,-1.63
2022-12-03T06:00:00.564Z,-1.85
2022-12-03T06:02:48.325Z,-1.83
2022-12-03T06:05:36.056Z,-1.74
2022-12-03T06:08:23.652Z,-1.79
2022-12-03T06:11:11.224Z,-1.65
2022-12-03T06:13:58.881Z,-1.68
2022-12-03T06:16:46.563Z,-1.66
2022-12-03T06:19:34.215Z,-1.74
2022-12-03T06:22:21.829Z,-1.55
2022-12-03T06:25:09.470Z,-1.52
2022-12-03T06:27:57.052Z,-1.57
2022-12-03T06:30:44.700Z,-1.56
2022-12-03T06:33:32.331Z,-1.67
2022-12-03T06:36:23.018Z,-1.76
2022-12-03T06:39:11.107Z,-1.78
2022-12-03T06:41:58.720Z,-1.71
2022-12-03T06:44:46.326Z,-1.67
2022-12-03T06:47:33.918Z,-1.80
2022-12-03T06:50:21.538Z,-1.80
2022-12-03T06:53:09.126Z,-1.84
2022-12-03T06:55:56.715Z,-1.69
2022-12-03T06:58:44.302Z,-1.83
2022-12-03T07:01:31.955Z,-1.81
2022-12-03T07:04:19.642Z,-1.81
2022-12-03T07:07:07.234Z,-1.77
2022-12-03T07:09:54.828Z,-1.69
2022-12-03T07:12:42.405Z,-1.48
2022-12-03T07:15:30.112Z,-1.61
2022-12-03T07:18:17.677Z,-1.64
2022-12-03T07:21:05.314Z,-1.62
2022-12-03T07:23:52.949Z,-1.47
2022-12-03T07:26:40.542Z,-1.59
2022-12-03T07:29:28.161Z,-1.35
2022-12-03T07:32:15.744Z,-1.41
2022-12-03T07:35:03.360Z,-1.39
2022-12-03T07:37:50.954Z,-1.60
2022-12-03T07:40:38.538Z,-1.40
2022-12-03T07:43:26.113Z,-1.32
2022-12-03T07:46:13.692Z,-1.57
2022-12-03T07:49:01.297Z,-1.32
2022-12-03T07:51:48.879Z,-1.36
2022-12-03T07:54:36.490Z,-1.33
2022-12-03T07:57:24.057Z,-1.45
2022-12-03T08:00:11.636Z,-1.52
2022-12-03T08:02:59.221Z,-1.48
2022-12-03T08:05:48.767Z,-1.42
2022-12-03T08:08:36.381Z,-1.36
2022-12-03T08:11:23.960Z,-1.37
2022-12-03T08:14:11.657Z,-1.27
2022-12-03T08:17:01.219Z,-1.41
2022-12-03T08:19:48.813Z,-1.29
2022-12-03T08:22:36.399Z,-1.05
2022-12-03T08:25:23.994Z,-1.05
2022-12-03T08:28:11.585Z,-1.25
2022-12-03T08:31:01.198Z,-1.27
2022-12-03T08:33:48.778Z,-1.22
2022-12-03T08:36:36.720Z,-1.16
2022-12-03T08:39:24.303Z,-1.13
2022-12-03T08:42:13.867Z,-1.23
2022-12-03T08:45:01.755Z,-1.20
2022-12-03T08:47:49.395Z,-1.28
2022-12-03T08:50:36.959Z,-0.98
2022-12-03T08:53:24.595Z,-0.81
2022-12-03T08:56:12.221Z,-0.83
2022-12-03T08:58:59.815Z,-0.88
2022-12-03T09:01:47.504Z,-0.95
2022-12-03T09:04:35.292Z,-0.72
2022-12-03T09:07:22.936Z,-0.85
2022-12-03T09:10:10.536Z,-0.87
2022-12-03T09:12:58.160Z,-1.02
2022-12-03T09:15:45.790Z,-1.13
2022-12-03T09:18:33.386Z,-1.15
2022-12-03T09:21:20.967Z,-1.26
2022-12-03T09:24:08.542Z,-1.25
2022-12-03T09:26:56.170Z,-1.13
2022-12-03T09:29:43.742Z,-1.29
2022-12-03T09:32:31.500Z,-1.21
2022-12-03T09:35:19.167Z,-1.08
2022-12-03T09:38:06.790Z,-0.90
2022-12-03T09:40:54.370Z,-1.17
2022-12-03T09:46:49.552Z,-1.10
2022-12-03T09:49:37.114Z,-0.90
2022-12-03T09:52:25.463Z,-1.02
2022-12-03T09:55:13.669Z,-1.09
2022-12-03T09:58:01.239Z,-1.09
2022-12-03T10:00:48.870Z,-0.98
2022-12-03T10:03:36.454Z,-1.10
2022-12-03T10:06:24.114Z,-1.07
2022-12-03T10:09:11.792Z,-1.25
2022-12-03T10:11:59.399Z,-1.02
2022-12-03T10:14:47.007Z,-1.03
2022-12-03T10:17:34.614Z,-1.11
2022-12-03T10:20:22.205Z,-1.11
2022-12-03T10:23:09.807Z,-1.04
2022-12-03T10:25:57.383Z,-0.79
2022-12-03T10:28:44.951Z,-0.75
2022-12-03T10:31:32.629Z,-0.66
2022-12-03T10:34:20.333Z,-0.69
2022-12-03T10:37:07.947Z,-0.59
2022-12-03T10:39:56.389Z,-0.79
2022-12-03T10:42:44.226Z,-0.81
2022-12-03T10:45:31.830Z,-0.65
2022-12-03T10:48:19.414Z,-0.74
2022-12-03T10:51:07.040Z,-0.54
2022-12-03T10:53:54.685Z,0.22
2022-12-03T10:56:42.266Z,0.14
2022-12-03T10:59:29.863Z,-0.56
2022-12-03T11:02:17.475Z,-0.16
2022-12-03T11:05:05.063Z,0.09
2022-12-03T11:07:52.788Z,-0.63
2022-12-03T11:10:40.425Z,-0.16
2022-12-03T11:13:28.018Z,-0.64
2022-12-03T11:16:15.784Z,-0.79
2022-12-03T11:19:03.434Z,-0.60
2022-12-03T11:21:51.135Z,-0.41
2022-12-03T11:24:38.727Z,-0.44
2022-12-03T11:27:26.331Z,-0.46
2022-12-03T11:30:13.903Z,-0.25
2022-12-03T11:33:01.634Z,-0.41
2022-12-03T11:35:51.231Z,-0.71
2022-12-03T11:38:38.849Z,-0.85
2022-12-03T11:41:26.435Z,-0.81
2022-12-03T11:44:14.045Z,-0.89
2022-12-03T11:47:02.077Z,-0.38
2022-12-03T11:49:49.916Z,-0.29
2022-12-03T11:52:37.544Z,-0.09
2022-12-03T11:55:25.115Z,-0.42
2022-12-03T11:58:12.733Z,-0.32
2022-12-03T12:01:00.308Z,0.00
2022-12-03T12:03:48.057Z,0.09
2022-12-03T12:06:35.831Z,-0.06
2022-12-03T12:09:23.405Z,0.23
2022-12-03T12:12:11.060Z,-0.27
2022-12-03T12:14:58.629Z,-0.32
2022-12-03T12:17:46.282Z,0.05
2022-12-03T12:20:33.874Z,0.06
2022-12-03T12:23:21.947Z,-0.19
2022-12-03T12:26:09.553Z,0.01
2022-12-03T12:28:57.174Z,0.35
2022-12-03T12:31:47.340Z,-0.03
2022-12-03T12:34:38.433Z,0.10
2022-12-03T12:37:26.037Z,-0.48
2022-12-03T12:40:13.709Z,-0.83
2022-12-03T12:43:05.370Z,-0.74
2022-12-03T12:45:57.807Z,-0.52
2022-12-03T12:48:45.394Z,-0.04
2022-12-03T12:51:33.000Z,-0.66
2022-12-03T12:54:20.601Z,-0.93
2022-12-03T12:57:08.292Z,-0.79
2022-12-03T12:59:57.847Z,-0.36
2022-12-03T13:02:45.487Z,-0.31
2022-12-03T13:05:33.224Z,-0.35
2022-12-03T13:08:20.910Z,-0.64
2022-12-03T13:11:08.507Z,-0.25
2022-12-03T13:13:56.104Z,-0.34
2022-12-03T13:16:43.752Z,-0.66
2022-12-03T13:19:31.444Z,-0.02
2022-12-03T13:22:19.023Z,-0.01
2022-12-03T13:25:06.611Z,-0.04
2022-12-03T13:27:54.210Z,-0.29
2022-12-03T13:30:41.852Z,0.15
2022-12-03T13:33:29.406Z,-0.02
2022-12-03T13:35:56.830Z,-0.13
2022-12-03T13:38:24.265Z,-0.64
2022-12-03T13:40:51.687Z,-0.34
2022-12-03T13:43:19.062Z,0.21
2022-12-03T13:45:46.508Z,0.16
2022-12-03T13:48:13.909Z,0.16
2022-12-03T13:50:41.288Z,0.35
2022-12-03T13:53:08.698Z,0.25
2022-12-03T13:55:36.112Z,-0.11
2022-12-03T13:58:03.494Z,0.15
2022-12-03T14:00:30.871Z,-0.26
2022-12-03T14:02:58.373Z,-0.15
2022-12-03T14:05:27.664Z,-0.03
2022-12-03T14:07:55.179Z,-0.14
2022-12-03T14:10:22.615Z,-0.28
2022-12-03T14:12:50.012Z,-0.18
2022-12-03T14:15:17.486Z,-0.30
2022-12-03T14:17:44.859Z,0.05
2022-12-03T14:20:12.254Z,-0.03
2022-12-03T14:22:39.659Z,0.11
2022-12-03T14:25:07.076Z,0.10
2022-12-03T14:27:34.472Z,0.12
2022-12-03T14:30:01.875Z,-0.18
2022-12-03T14:32:29.299Z,-0.38
2022-12-03T14:34:56.691Z,-0.38
2022-12-03T14:37:24.133Z,-0.80
2022-12-03T14:39:51.556Z,-0.63
2022-12-03T14:42:19.006Z,-0.51
2022-12-03T14:44:47.306Z,-0.50
2022-12-03T14:47:14.682Z,-0.34
2022-12-03T14:49:42.086Z,-0.27
2022-12-03T14:52:12.185Z,-0.54
2022-12-03T14:54:40.015Z,-0.52
2022-12-03T14:57:07.449Z,-0.26
2022-12-03T14:59:34.834Z,0.19
2022-12-03T15:02:02.315Z,-0.48
2022-12-03T15:04:29.814Z,-0.56
2022-12-03T15:06:57.187Z,-0.71
2022-12-03T15:09:24.580Z,-0.37
2022-12-03T15:11:52.017Z,-0.84
2022-12-03T15:14:19.410Z,-0.55
2022-12-03T15:16:46.859Z,-0.40
2022-12-03T15:19:14.283Z,-0.50
2022-12-03T15:21:41.673Z,-0.65
2022-12-03T15:24:09.076Z,-0.65
2022-12-03T15:26:36.516Z,-0.34
2022-12-03T15:29:03.917Z,-0.53
2022-12-03T15:31:31.367Z,-0.80
2022-12-03T15:33:58.890Z,-0.55
2022-12-03T15:36:26.307Z,-0.80
2022-12-03T15:38:53.733Z,-0.31
2022-12-03T15:41:21.143Z,-0.56
2022-12-03T15:43:48.574Z,-0.57
2022-12-03T15:46:16.072Z,-0.65
2022-12-03T15:48:43.496Z,-0.58
2022-12-03T15:51:10.888Z,-0.54
2022-12-03T15:53:38.300Z,-0.43
2022-12-03T15:56:05.689Z,-0.32
2022-12-03T15:58:33.087Z,-0.45
2022-12-03T16:01:00.489Z,-0.51
2022-12-03T16:03:27.937Z,-0.57
2022-12-03T16:05:55.398Z,-0.94
2022-12-03T16:08:22.892Z,-0.87
2022-12-03T16:10:50.350Z,-0.80
2022-12-03T16:13:17.756Z,-0.53
2022-12-03T16:15:45.254Z,-0.46
2022-12-03T16:18:12.717Z,-0.59
2022-12-03T16:20:40.090Z,-0.56
2022-12-03T16:23:07.493Z,-0.54
2022-12-03T16:25:34.929Z,-0.52
2022-12-03T16:28:02.326Z,-0.23
2022-12-03T16:30:29.766Z,-0.53
2022-12-03T16:32:57.199Z,-0.70
2022-12-03T16:35:24.604Z,-0.44
2022-12-03T16:37:52.035Z,-0.39
2022-12-03T16:40:19.435Z,-0.64
2022-12-03T16:42:46.835Z,-0.81
2022-12-03T16:45:14.279Z,-0.56
2022-12-03T16:47:41.655Z,-0.92
2022-12-03T16:50:11.544Z,-0.94
2022-12-03T16:52:41.609Z,-0.80
2022-12-03T16:55:09.027Z,-0.73
2022-12-03T16:57:36.434Z,-1.09
2022-12-03T17:00:03.826Z,-0.89
2022-12-03T17:02:31.276Z,-1.01
2022-12-03T17:04:58.734Z,-0.95
2022-12-03T17:07:26.263Z,-1.00
2022-12-03T17:09:54.020Z,-0.87
2022-12-03T17:12:21.610Z,-1.01
2022-12-03T17:14:49.029Z,-0.99
2022-12-03T17:17:16.402Z,-0.61
2022-12-03T17:19:43.809Z,-0.89
2022-12-03T17:22:11.279Z,-0.61
2022-12-03T17:24:38.687Z,-0.70
2022-12-03T17:27:06.200Z,0.01
2022-12-03T17:29:33.606Z,-0.21
2022-12-03T17:32:01.148Z,-0.60
2022-12-03T17:34:28.692Z,-0.56
2022-12-03T17:36:56.119Z,-0.47
2022-12-03T17:39:23.510Z,-0.63
2022-12-03T17:41:50.915Z,-0.61
2022-12-03T17:44:21.153Z,-0.63
2022-12-03T17:46:48.906Z,-0.56
2022-12-03T17:49:16.366Z,-0.52
2022-12-03T17:51:43.742Z,-0.50
2022-12-03T17:54:11.155Z,-0.65
2022-12-03T17:56:38.542Z,-0.47
2022-12-03T17:59:05.970Z,-0.61
2022-12-03T18:01:33.428Z,-0.07
2022-12-03T18:04:00.971Z,-0.46
2022-12-03T18:06:28.451Z,-0.16
2022-12-03T18:08:55.827Z,-0.56
2022-12-03T18:11:23.269Z,-0.55
2022-12-03T18:13:50.658Z,-0.50
2022-12-03T18:16:18.101Z,-0.55
2022-12-03T18:18:45.522Z,-0.88
2022-12-03T18:21:12.906Z,-0.78
2022-12-03T18:23:40.309Z,-0.33
2022-12-03T18:26:07.719Z,-0.37
2022-12-03T18:28:35.097Z,-0.08
2022-12-03T18:31:02.543Z,-0.38
2022-12-03T18:33:29.989Z,-0.10
2022-12-03T18:35:57.436Z,-0.37
2022-12-03T18:38:24.865Z,-0.39
2022-12-03T18:40:52.288Z,-0.20
2022-12-03T18:43:19.686Z,-0.37
2022-12-03T18:45:47.090Z,-0.47
2022-12-03T18:48:14.526Z,-0.24
2022-12-03T18:50:41.904Z,-0.28
2022-12-03T18:53:09.313Z,-0.36
2022-12-03T18:55:36.714Z,-0.41
2022-12-03T18:58:04.129Z,0.13
2022-12-03T19:00:31.568Z,-0.44
2022-12-03T19:03:03.755Z,-0.35
2022-12-03T19:05:31.713Z,-0.05
2022-12-03T19:07:59.146Z,-0.10
2022-12-03T19:10:26.643Z,-0.17
2022-12-03T19:12:54.020Z,-0.57
2022-12-03T19:15:21.429Z,0.34
2022-12-03T19:17:48.835Z,-0.19
2022-12-03T19:20:16.228Z,-0.55
2022-12-03T19:22:43.657Z,-0.85
2022-12-03T19:25:11.067Z,-0.47
2022-12-03T19:27:38.478Z,-0.34
2022-12-03T19:30:05.890Z,0.06
2022-12-03T19:32:33.307Z,0.04
2022-12-03T19:35:00.693Z,0.05
2022-12-03T19:37:28.126Z,0.28
2022-12-03T19:40:14.218Z,0.04
2022-12-03T19:43:01.803Z,-0.33
2022-12-03T19:45:49.487Z,-0.38
2022-12-03T19:48:38.218Z,-0.25
2022-12-03T19:51:34.583Z,-0.45
2022-12-03T19:54:23.098Z,0.25
2022-12-03T19:57:10.713Z,-0.27
2022-12-03T19:59:58.318Z,-0.40
2022-12-03T20:02:46.041Z,-0.24
2022-12-03T20:05:33.692Z,-0.43
2022-12-03T20:08:21.376Z,-0.54
2022-12-03T20:11:09.054Z,-0.58
2022-12-03T20:13:56.664Z,-0.56
2022-12-03T20:16:44.324Z,0.13
2022-12-03T20:19:32.021Z,-0.57
2022-12-03T20:22:19.595Z,-0.12
2022-12-03T20:25:07.218Z,-0.05
2022-12-03T20:27:54.802Z,-0.31
2022-12-03T20:30:42.417Z,-0.29
2022-12-03T20:33:30.018Z,-0.09
2022-12-03T20:35:57.421Z,0.18
2022-12-03T20:38:24.822Z,-0.27
2022-12-03T20:40:52.219Z,-0.14
2022-12-03T20:43:19.617Z,-0.11
2022-12-03T20:45:47.102Z,0.06
2022-12-03T20:48:14.524Z,-0.41
2022-12-03T20:50:41.912Z,-0.21
2022-12-03T20:53:24.357Z,-0.64
2022-12-03T20:55:52.463Z,-0.41
2022-12-03T20:58:19.865Z,-0.30
2022-12-03T21:00:47.329Z,-0.14
2022-12-03T21:03:14.885Z,-0.02
2022-12-03T21:05:42.287Z,0.25
2022-12-03T21:08:09.744Z,-0.03
2022-12-03T21:10:37.206Z,0.44
2022-12-03T21:13:04.633Z,0.67
2022-12-03T21:15:32.077Z,0.82
2022-12-03T21:17:59.547Z,0.33
2022-12-03T21:20:27.023Z,-0.30
2022-12-03T21:22:54.457Z,-0.36
2022-12-03T21:25:21.870Z,-0.14
2022-12-03T21:27:49.262Z,-0.42
2022-12-03T21:30:36.588Z,-0.39
2022-12-03T21:33:23.877Z,-0.02
2022-12-03T21:35:51.407Z,-0.21
2022-12-03T21:38:18.829Z,-0.20
2022-12-03T21:40:46.242Z,0.05
2022-12-03T21:43:13.648Z,0.15
2022-12-03T21:45:41.162Z,0.12
2022-12-03T21:48:08.592Z,0.30
2022-12-03T21:50:35.984Z,0.44
2022-12-03T21:53:03.388Z,0.09
2022-12-03T21:55:32.865Z,0.28
2022-12-03T21:58:00.250Z,0.25
2022-12-03T22:00:27.639Z,0.33
2022-12-03T22:02:55.070Z,0.18
2022-12-03T22:05:22.539Z,0.17
2022-12-03T22:07:49.977Z,0.30
2022-12-03T22:10:17.445Z,0.15
2022-12-03T22:12:44.839Z,0.38
2022-12-03T22:15:18.153Z,0.54
2022-12-03T22:17:46.388Z,0.02
2022-12-03T22:20:13.768Z,0.36
2022-12-03T22:22:41.194Z,0.16
2022-12-03T22:25:08.567Z,0.07
2022-12-03T22:27:35.962Z,-0.13
2022-12-03T22:30:22.137Z,-0.07
2022-12-03T22:33:09.723Z,-0.08
2022-12-03T22:35:57.287Z,-0.31
2022-12-03T22:38:44.874Z,-0.22
2022-12-03T22:41:32.447Z,-0.02
2022-12-03T22:44:20.042Z,-0.08
2022-12-03T22:47:07.609Z,-0.33
2022-12-03T22:49:55.660Z,-0.46
2022-12-03T22:52:43.484Z,-0.58
2022-12-03T22:55:31.087Z,-0.48
2022-12-03T22:58:18.674Z,-0.55
2022-12-03T23:01:06.283Z,-0.50
2022-12-03T23:03:53.961Z,-0.50
2022-12-03T23:06:41.614Z,-0.27
2022-12-03T23:09:29.229Z,-0.41
2022-12-03T23:12:16.849Z,-0.61
2022-12-03T23:15:04.446Z,-0.51
2022-12-03T23:17:52.076Z,-0.53
2022-12-03T23:20:39.669Z,-0.20
2022-12-03T23:23:27.270Z,-0.10
2022-12-03T23:26:14.958Z,0.13
2022-12-03T23:29:02.526Z,-0.04
2022-12-03T23:31:50.157Z,-0.01
2022-12-03T23:34:37.820Z,0.12
2022-12-03T23:37:25.479Z,0.09
2022-12-03T23:40:13.069Z,0.41
2022-12-03T23:43:00.668Z,0.24
2022-12-03T23:45:48.247Z,0.11
2022-12-03T23:48:35.846Z,-0.06
2022-12-03T23:51:23.431Z,-0.30
2022-12-03T23:54:11.003Z,-0.43
2022-12-03T23:56:58.596Z,-0.40
2022-12-03T23:59:46.162Z,-0.48
